createdAt,value
2022-12-15T00:02:20.772Z,1.40
2022-12-15T00:05:06.884Z,2.05
2022-12-15T00:07:52.826Z,1.50
2022-12-15T00:10:38.788Z,1.40
2022-12-15T00:13:32.248Z,2.05
2022-12-15T00:16:17.877Z,1.58
2022-12-15T00:19:03.288Z,2.38
2022-12-15T00:21:48.725Z,1.50
2022-12-15T00:24:33.876Z,1.50
2022-12-15T00:27:19.387Z,1.95
2022-12-15T00:30:04.922Z,1.63
2022-12-15T00:32:50.165Z,2.05
2022-12-15T00:35:35.375Z,1.55
2022-12-15T00:38:44.338Z,1.40
2022-12-15T00:41:16.241Z,2.53
2022-12-15T00:43:43.670Z,2.13
2022-12-15T00:46:28.966Z,1.92
2022-12-15T00:48:56.446Z,2.55
2022-12-15T00:51:41.636Z,2.05
2022-12-15T00:54:26.548Z,2.30
2022-12-15T00:57:11.821Z,1.55
2022-12-15T00:59:57.209Z,1.50
2022-12-15T01:02:42.979Z,2.08
2022-12-15T01:05:28.176Z,1.65
2022-12-15T01:08:13.430Z,2.30
2022-12-15T01:10:58.782Z,1.80
2022-12-15T01:13:43.959Z,1.90
2022-12-15T01:16:35.095Z,1.77
2022-12-15T01:19:21.152Z,2.83
2022-12-15T01:21:49.816Z,2.17
2022-12-15T01:24:16.561Z,2.15
2022-12-15T01:26:43.216Z,2.28
2022-12-15T01:29:09.831Z,1.92
2022-12-15T01:31:36.744Z,1.80
2022-12-15T01:34:03.648Z,1.95
2022-12-15T01:36:30.319Z,1.75
2022-12-15T01:38:57.292Z,1.73
2022-12-15T01:41:24.341Z,1.98
2022-12-15T01:43:51.028Z,2.28
2022-12-15T01:46:21.231Z,1.65
2022-12-15T01:49:13.040Z,2.13
2022-12-15T01:51:45.043Z,1.80
2022-12-15T01:54:48.534Z,2.08
2022-12-15T01:57:22.980Z,2.50
2022-12-15T02:00:00.228Z,1.90
2022-12-15T02:02:29.455Z,1.58
2022-12-15T02:05:00.008Z,2.13
2022-12-15T02:07:27.199Z,2.72
2022-12-15T02:09:57.516Z,2.75
2022-12-15T02:12:30.177Z,2.00
2022-12-15T02:15:02.821Z,2.35
2022-12-15T02:17:29.576Z,1.90
2022-12-15T02:20:02.305Z,2.80
2022-12-15T02:22:57.604Z,1.67
2022-12-15T02:25:42.996Z,1.60
2022-12-15T02:28:32.898Z,1.83
2022-12-15T02:31:28.669Z,2.00
2022-12-15T02:34:06.136Z,1.85
2022-12-15T02:36:37.272Z,1.67
2022-12-15T02:39:08.312Z,2.00
2022-12-15T02:41:34.911Z,2.05
2022-12-15T02:44:09.268Z,1.92
2022-12-15T02:46:42.223Z,1.77
2022-12-15T02:49:30.927Z,2.03
2022-12-15T02:52:07.682Z,2.95
2022-12-15T02:55:00.445Z,1.88
2022-12-15T02:57:42.244Z,2.97
2022-12-15T03:00:11.192Z,1.60
2022-12-15T03:02:42.576Z,2.03
2022-12-15T03:05:10.256Z,1.95
2022-12-15T03:07:36.929Z,1.73
2022-12-15T03:10:06.332Z,2.10
2022-12-15T03:12:33.148Z,1.90
2022-12-15T03:14:59.801Z,1.77
2022-12-15T03:17:26.541Z,2.03
2022-12-15T03:19:53.239Z,2.28
2022-12-15T03:22:20.417Z,1.85
2022-12-15T03:24:47.051Z,2.15
2022-12-15T03:27:13.784Z,2.13
2022-12-15T03:29:40.526Z,1.90
2022-12-15T03:32:07.268Z,1.50
2022-12-15T03:34:34.194Z,2.03
2022-12-15T03:37:01.192Z,1.80
2022-12-15T03:39:27.916Z,1.60
2022-12-15T03:41:54.537Z,1.00
2022-12-15T03:44:21.255Z,1.65
2022-12-15T03:46:47.926Z,1.52
2022-12-15T03:49:14.719Z,1.40
2022-12-15T03:51:41.356Z,1.40
2022-12-15T03:54:07.981Z,1.20
2022-12-15T03:56:34.727Z,1.73
2022-12-15T03:59:01.424Z,1.50
2022-12-15T04:01:31.772Z,1.85
2022-12-15T04:04:01.144Z,2.08
2022-12-15T04:06:28.952Z,1.88
2022-12-15T04:08:55.629Z,1.55
2022-12-15T04:11:22.274Z,3.15
2022-12-15T04:13:48.925Z,1.60
2022-12-15T04:16:19.749Z,1.77
2022-12-15T04:19:07.484Z,1.92
2022-12-15T04:21:34.110Z,1.55
2022-12-15T04:24:19.339Z,1.70
2022-12-15T04:27:04.737Z,1.40
2022-12-15T04:29:50.022Z,1.40
2022-12-15T04:32:35.276Z,1.60
2022-12-15T04:35:20.489Z,1.35
2022-12-15T04:38:05.605Z,1.55
2022-12-15T04:40:50.777Z,1.58
2022-12-15T04:43:35.989Z,3.35
2022-12-15T04:46:21.336Z,1.60
2022-12-15T04:49:06.470Z,1.52
2022-12-15T04:51:52.395Z,1.30
2022-12-15T04:54:37.804Z,1.70
2022-12-15T04:57:23.032Z,1.70
2022-12-15T05:00:08.448Z,1.17
2022-12-15T05:02:53.808Z,1.40
2022-12-15T05:05:39.346Z,1.10
2022-12-15T05:08:24.359Z,1.23
2022-12-15T05:11:09.534Z,1.38
2022-12-15T05:13:54.914Z,1.15
2022-12-15T05:16:40.030Z,1.10
2022-12-15T05:19:25.591Z,1.30
2022-12-15T05:22:10.666Z,1.52
2022-12-15T05:24:55.943Z,1.05
2022-12-15T05:27:41.155Z,1.10
2022-12-15T05:30:27.390Z,1.13
2022-12-15T05:32:54.157Z,1.00
2022-12-15T05:35:20.785Z,1.10
2022-12-15T05:37:47.432Z,1.20
2022-12-15T05:40:14.123Z,1.40
2022-12-15T05:42:40.724Z,1.60
2022-12-15T05:45:07.924Z,1.45
2022-12-15T05:47:34.578Z,1.20
2022-12-15T05:50:01.197Z,1.30
2022-12-15T05:52:27.880Z,1.30
2022-12-15T05:54:54.480Z,1.20
2022-12-15T05:57:21.194Z,1.30
2022-12-15T05:59:47.901Z,1.83
2022-12-15T06:02:14.807Z,1.40
2022-12-15T06:04:41.689Z,1.10
2022-12-15T06:07:08.388Z,1.25
2022-12-15T06:09:35.009Z,1.35
2022-12-15T06:12:01.608Z,1.20
2022-12-15T06:14:28.326Z,1.20
2022-12-15T06:16:55.963Z,1.17
2022-12-15T06:19:22.717Z,1.30
2022-12-15T06:21:49.678Z,1.23
2022-12-15T06:24:16.677Z,1.30
2022-12-15T06:26:43.365Z,1.60
2022-12-15T06:29:12.472Z,1.50
2022-12-15T06:31:40.695Z,1.55
2022-12-15T06:34:11.592Z,1.40
2022-12-15T06:36:39.266Z,1.30
2022-12-15T06:39:08.516Z,1.15
2022-12-15T06:41:35.305Z,1.10
2022-12-15T06:44:02.339Z,1.20
2022-12-15T06:46:30.516Z,1.15
2022-12-15T06:48:58.094Z,1.17
2022-12-15T06:51:28.598Z,1.20
2022-12-15T06:53:56.259Z,1.30
2022-12-15T06:56:32.724Z,1.27
2022-12-15T06:59:01.801Z,1.33
2022-12-15T07:01:29.529Z,1.40
2022-12-15T07:03:57.170Z,1.50
2022-12-15T07:06:24.085Z,1.48
2022-12-15T07:08:53.258Z,1.95
2022-12-15T07:11:24.830Z,1.90
2022-12-15T07:13:54.963Z,1.50
2022-12-15T07:16:23.190Z,1.35
2022-12-15T07:18:50.614Z,1.55
2022-12-15T07:21:17.682Z,1.30
2022-12-15T07:24:00.863Z,1.38
2022-12-15T07:26:28.543Z,1.50
2022-12-15T07:28:56.310Z,1.27
2022-12-15T07:31:23.860Z,1.38
2022-12-15T07:33:52.601Z,1.40
2022-12-15T07:36:19.813Z,1.60
2022-12-15T07:38:50.419Z,1.30
2022-12-15T07:41:18.537Z,1.40
2022-12-15T07:43:46.680Z,1.90
2022-12-15T07:46:13.435Z,1.45
2022-12-15T07:48:40.186Z,1.45
2022-12-15T07:51:12.343Z,1.60
2022-12-15T07:53:39.968Z,1.92
2022-12-15T07:56:09.627Z,2.22
2022-12-15T07:58:38.352Z,2.67
2022-12-15T08:01:07.442Z,1.73
2022-12-15T08:03:36.231Z,2.05
2022-12-15T08:06:06.378Z,1.70
2022-12-15T08:08:34.768Z,1.80
2022-12-15T08:11:09.450Z,1.45
2022-12-15T08:16:24.170Z,1.58
2022-12-15T08:18:50.972Z,1.58
2022-12-15T08:21:17.995Z,1.80
2022-12-15T08:23:45.088Z,1.60
2022-12-15T08:26:15.265Z,1.52
2022-12-15T08:28:43.468Z,1.73
2022-12-15T08:31:16.697Z,1.75
2022-12-15T08:33:44.804Z,1.50
2022-12-15T08:36:14.726Z,2.03
2022-12-15T08:38:42.912Z,1.50
2022-12-15T08:41:12.898Z,1.30
2022-12-15T08:43:47.585Z,1.30
2022-12-15T08:46:19.836Z,1.98
2022-12-15T08:48:47.055Z,1.90
2022-12-15T08:51:14.455Z,2.55
2022-12-15T08:53:41.188Z,1.40
2022-12-15T08:56:13.952Z,1.67
2022-12-15T08:58:40.770Z,1.85
2022-12-15T09:01:15.951Z,1.88
2022-12-15T09:03:45.628Z,1.85
2022-12-15T09:06:18.539Z,1.30
2022-12-15T09:08:50.289Z,1.65
2022-12-15T09:11:17.692Z,17.85
2022-12-15T09:13:44.743Z,11.15
2022-12-15T09:16:14.977Z,15.27
2022-12-15T09:18:49.856Z,9.18
2022-12-15T09:21:17.947Z,9.93
2022-12-15T09:23:48.703Z,7.00
2022-12-15T09:26:16.234Z,6.28
2022-12-15T09:28:43.324Z,6.55
2022-12-15T09:31:11.742Z,4.15
2022-12-15T09:33:39.705Z,2.88
2022-12-15T09:36:08.021Z,2.20
2022-12-15T09:38:36.250Z,1.85
2022-12-15T09:41:13.096Z,1.58
2022-12-15T09:43:52.207Z,1.40
2022-12-15T09:47:06.275Z,1.85
2022-12-15T09:49:55.992Z,2.45
2022-12-15T09:52:27.517Z,2.40
2022-12-15T09:54:54.327Z,2.38
2022-12-15T09:57:48.277Z,1.52
2022-12-15T10:00:22.170Z,1.52
2022-12-15T10:03:09.908Z,1.80
2022-12-15T10:06:20.053Z,1.60
2022-12-15T10:09:00.649Z,1.48
2022-12-15T10:11:50.651Z,1.40
2022-12-15T10:14:38.740Z,1.38
2022-12-15T10:17:14.514Z,1.63
2022-12-15T10:19:50.170Z,1.50
2022-12-15T10:22:26.516Z,1.88
2022-12-15T10:25:11.081Z,1.50
2022-12-15T10:28:15.863Z,1.45
2022-12-15T10:31:18.107Z,1.48
2022-12-15T10:33:52.203Z,1.42
2022-12-15T10:36:19.119Z,1.65
2022-12-15T10:38:50.265Z,1.55
2022-12-15T10:41:26.458Z,1.60
2022-12-15T10:43:54.851Z,1.60
2022-12-15T10:46:27.177Z,1.38
2022-12-15T10:48:54.643Z,1.50
2022-12-15T10:51:33.105Z,2.60
2022-12-15T10:54:05.105Z,1.30
2022-12-15T10:56:34.254Z,1.88
2022-12-15T10:59:04.823Z,1.50
2022-12-15T11:01:34.370Z,1.50
2022-12-15T11:04:01.746Z,1.65
2022-12-15T11:06:33.780Z,2.35
2022-12-15T11:09:36.761Z,1.50
2022-12-15T11:12:39.397Z,1.20
2022-12-15T11:15:21.778Z,1.38
2022-12-15T11:18:02.935Z,1.75
2022-12-15T11:20:42.007Z,1.60
2022-12-15T11:23:27.806Z,1.60
2022-12-15T11:26:06.852Z,1.67
2022-12-15T11:28:44.217Z,1.50
2022-12-15T11:31:24.496Z,1.50
2022-12-15T11:33:54.241Z,1.27
2022-12-15T11:36:23.751Z,1.67
2022-12-15T11:38:59.623Z,1.30
2022-12-15T11:41:50.508Z,1.67
2022-12-15T11:44:23.208Z,1.90
2022-12-15T11:47:19.375Z,1.45
2022-12-15T11:50:04.035Z,1.40
2022-12-15T11:52:52.804Z,1.38
2022-12-15T11:55:37.526Z,1.70
2022-12-15T11:58:38.431Z,1.23
2022-12-15T12:01:08.088Z,1.50
2022-12-15T12:03:48.857Z,1.30
2022-12-15T12:06:40.596Z,1.35
2022-12-15T12:09:21.074Z,1.50
2022-12-15T12:11:59.362Z,1.52
2022-12-15T12:15:03.589Z,1.27
2022-12-15T12:17:42.415Z,1.35
2022-12-15T12:20:27.317Z,1.40
2022-12-15T12:23:02.914Z,1.30
2022-12-15T12:25:35.239Z,1.45
2022-12-15T12:28:26.156Z,1.50
2022-12-15T12:30:56.919Z,1.33
2022-12-15T12:33:36.806Z,1.38
2022-12-15T12:36:15.720Z,1.10
2022-12-15T12:38:50.475Z,1.20
2022-12-15T12:41:28.690Z,1.30
2022-12-15T12:43:58.908Z,1.30
2022-12-15T12:46:42.762Z,1.52
2022-12-15T12:49:20.121Z,1.60
2022-12-15T12:52:04.161Z,1.15
2022-12-15T12:54:37.158Z,1.13
2022-12-15T12:57:12.967Z,1.40
2022-12-15T12:59:48.922Z,1.10
2022-12-15T13:02:21.894Z,1.40
2022-12-15T13:05:00.726Z,1.50
2022-12-15T13:07:36.416Z,1.27
2022-12-15T13:10:09.155Z,1.27
2022-12-15T13:15:43.124Z,1.45
2022-12-15T13:18:23.581Z,1.40
2022-12-15T13:20:55.004Z,1.75
2022-12-15T13:23:21.674Z,1.45
2022-12-15T13:26:00.563Z,1.52
2022-12-15T13:28:36.180Z,1.40
2022-12-15T13:31:13.576Z,1.30
2022-12-15T13:33:49.486Z,1.40
2022-12-15T13:36:38.351Z,1.05
2022-12-15T13:39:25.330Z,1.10
2022-12-15T13:42:31.525Z,1.45
2022-12-15T13:44:48.916Z,1.33
2022-12-15T13:47:18.336Z,1.15
2022-12-15T13:50:01.349Z,1.25
2022-12-15T13:53:16.339Z,1.40
2022-12-15T13:55:27.767Z,1.50
2022-12-15T13:58:00.138Z,1.23
2022-12-15T14:00:26.845Z,1.27
2022-12-15T14:03:07.582Z,1.10
2022-12-15T14:05:34.586Z,1.30
2022-12-15T14:08:03.610Z,1.17
2022-12-15T14:10:33.272Z,1.20
2022-12-15T14:13:15.810Z,1.15
2022-12-15T14:15:47.475Z,1.50
2022-12-15T14:18:24.773Z,1.25
2022-12-15T14:20:53.100Z,1.20
2022-12-15T14:23:38.718Z,1.20
2022-12-15T14:26:08.670Z,1.20
2022-12-15T14:28:37.170Z,1.27
2022-12-15T14:31:07.372Z,1.30
2022-12-15T14:33:40.183Z,1.40
2022-12-15T14:36:10.633Z,1.48
2022-12-15T14:38:45.545Z,1.27
2022-12-15T14:41:23.738Z,1.30
2022-12-15T14:44:36.403Z,1.20
2022-12-15T14:46:39.211Z,1.20
2022-12-15T14:49:09.400Z,1.42
2022-12-15T14:51:46.697Z,1.20
2022-12-15T14:54:33.484Z,1.20
2022-12-15T14:57:14.206Z,1.10
2022-12-15T14:59:43.250Z,1.38
2022-12-15T15:02:22.999Z,1.20
2022-12-15T15:03:07.366Z,1.30
2022-12-15T15:05:05.365Z,1.40
2022-12-15T15:07:33.915Z,1.38
2022-12-15T15:10:02.123Z,1.20
2022-12-15T15:12:55.227Z,1.50
2022-12-15T15:15:25.667Z,1.27
2022-12-15T15:17:55.059Z,1.50
2022-12-15T15:20:28.080Z,1.38
2022-12-15T15:23:24.269Z,1.35
2022-12-15T15:26:07.198Z,1.38
2022-12-15T15:28:36.831Z,1.20
2022-12-15T15:31:23.303Z,1.20
2022-12-15T15:33:50.131Z,1.08
2022-12-15T15:36:16.871Z,1.48
2022-12-15T15:38:46.774Z,1.17
2022-12-15T15:41:31.651Z,1.20
2022-12-15T15:44:00.774Z,1.33
2022-12-15T15:46:34.254Z,1.60
2022-12-15T15:49:08.206Z,1.30
2022-12-15T15:51:36.209Z,1.65
2022-12-15T15:54:10.956Z,1.63
2022-12-15T15:56:37.616Z,1.98
2022-12-15T15:59:12.182Z,1.30
2022-12-15T16:01:39.096Z,1.38
2022-12-15T17:10:36.418Z,2.97
2022-12-15T17:13:35.599Z,2.80
2022-12-15T17:16:06.071Z,2.33
2022-12-15T17:18:34.500Z,1.80
2022-12-15T17:21:08.065Z,2.55
2022-12-15T17:23:35.818Z,2.50
2022-12-15T17:26:25.820Z,3.58
2022-12-15T17:28:50.375Z,5.18
2022-12-15T17:31:21.578Z,3.10
2022-12-15T17:33:49.121Z,4.68
2022-12-15T17:36:20.959Z,3.15
2022-12-15T17:38:54.342Z,3.47
2022-12-15T17:41:42.742Z,2.75
2022-12-15T17:44:35.426Z,2.60
2022-12-15T17:47:06.156Z,2.25
2022-12-15T17:49:36.820Z,2.25
2022-12-15T17:52:14.999Z,2.45
2022-12-15T17:54:41.820Z,2.38
2022-12-15T17:57:11.863Z,3.60
2022-12-15T17:59:39.256Z,2.00
2022-12-15T18:02:07.306Z,1.50
2022-12-15T18:04:38.715Z,1.92
2022-12-15T18:07:05.759Z,1.83
2022-12-15T18:09:32.618Z,1.42
2022-12-15T18:11:59.656Z,1.70
2022-12-15T18:14:29.030Z,1.75
2022-12-15T18:16:56.006Z,2.00
2022-12-15T18:19:23.757Z,1.65
2022-12-15T18:21:50.605Z,1.88
2022-12-15T18:24:20.316Z,1.85
2022-12-15T18:26:47.471Z,2.03
2022-12-15T18:29:18.425Z,3.45
2022-12-15T18:31:50.323Z,1.90
2022-12-15T18:34:20.121Z,2.58
2022-12-15T18:36:50.609Z,3.00
2022-12-15T18:39:27.122Z,2.85
2022-12-15T18:41:57.531Z,2.53
2022-12-15T18:44:27.232Z,1.80
2022-12-15T18:46:55.135Z,2.03
2022-12-15T18:49:23.293Z,2.10
2022-12-15T18:51:50.658Z,2.42
2022-12-15T18:54:20.564Z,2.33
2022-12-15T18:56:48.655Z,1.80
2022-12-15T18:59:17.193Z,1.90
2022-12-15T19:01:46.067Z,1.50
2022-12-15T19:04:14.003Z,1.83
2022-12-15T19:06:41.390Z,1.67
2022-12-15T19:09:16.052Z,1.70
2022-12-15T19:12:04.630Z,1.83
2022-12-15T19:14:43.808Z,1.65
2022-12-15T19:17:39.616Z,1.98
2022-12-15T19:20:37.382Z,1.67
2022-12-15T19:23:05.613Z,2.42
2022-12-15T19:25:33.361Z,2.15
2022-12-15T19:28:01.322Z,1.98
2022-12-15T19:30:31.192Z,2.13
2022-12-15T19:32:57.940Z,1.92
2022-12-15T19:35:26.205Z,1.70
2022-12-15T19:37:55.763Z,2.13
2022-12-15T19:40:30.463Z,3.35
2022-12-15T19:42:58.481Z,3.92
2022-12-15T19:45:28.385Z,6.63
2022-12-15T19:47:55.597Z,6.60
2022-12-15T19:50:24.975Z,5.95
2022-12-15T19:52:55.042Z,3.70
2022-12-15T19:55:27.276Z,3.05
2022-12-15T19:57:53.927Z,2.53
2022-12-15T20:00:22.349Z,3.17
2022-12-15T20:02:51.686Z,2.83
2022-12-15T20:05:19.557Z,3.42
2022-12-15T20:07:47.343Z,2.40
2022-12-15T20:10:29.397Z,3.10
2022-12-15T20:12:58.867Z,2.92
2022-12-15T20:15:26.695Z,2.30
2022-12-15T20:18:00.021Z,2.40
2022-12-15T20:20:29.526Z,2.67
2022-12-15T20:23:01.615Z,2.50
2022-12-15T20:25:32.463Z,2.75
2022-12-15T20:28:03.077Z,2.13
2022-12-15T20:30:32.913Z,2.25
2022-12-15T20:33:01.169Z,2.00
2022-12-15T20:35:28.682Z,1.80
2022-12-15T20:37:55.391Z,2.20
2022-12-15T20:40:25.950Z,1.88
2022-12-15T20:42:54.585Z,1.48
2022-12-15T20:45:24.830Z,1.90
2022-12-15T20:47:54.843Z,1.70
2022-12-15T20:50:35.412Z,1.77
2022-12-15T20:53:02.617Z,2.20
2022-12-15T20:55:30.034Z,1.95
2022-12-15T20:57:56.765Z,1.38
2022-12-15T21:00:23.457Z,1.75
2022-12-15T21:02:52.047Z,1.50
2022-12-15T21:05:24.576Z,2.17
2022-12-15T21:07:52.606Z,2.58
2022-12-15T21:10:20.878Z,1.83
2022-12-15T21:12:50.052Z,1.88
2022-12-15T21:15:20.763Z,2.10
2022-12-15T21:18:19.698Z,1.90
2022-12-15T21:20:45.446Z,2.17
2022-12-15T21:23:22.714Z,1.60
2022-12-15T21:25:50.630Z,2.20
2022-12-15T21:28:17.773Z,1.83
2022-12-15T21:30:45.265Z,2.45
2022-12-15T21:33:12.354Z,1.88
2022-12-15T21:35:41.793Z,2.20
2022-12-15T21:38:40.917Z,2.40
2022-12-15T21:41:16.177Z,1.60
2022-12-15T21:43:43.309Z,1.77
2022-12-15T21:46:27.531Z,1.90
2022-12-15T21:49:13.952Z,2.30
2022-12-15T21:51:43.730Z,3.35
2022-12-15T21:54:20.033Z,1.80
2022-12-15T21:56:48.149Z,2.00
2022-12-15T21:59:17.289Z,2.63
2022-12-15T22:01:44.380Z,2.58
2022-12-15T22:04:18.219Z,2.03
2022-12-15T22:06:50.398Z,2.17
2022-12-15T22:09:18.738Z,2.08
2022-12-15T22:11:48.832Z,2.00
2022-12-15T22:14:28.495Z,1.65
2022-12-15T22:16:55.781Z,2.70
2022-12-15T22:19:23.129Z,2.80
2022-12-15T22:21:50.513Z,3.53
2022-12-15T22:24:19.327Z,4.50
2022-12-15T22:26:47.546Z,4.90
2022-12-15T22:29:18.019Z,4.45
2022-12-15T22:31:44.869Z,4.80
2022-12-15T22:34:23.161Z,6.00
2022-12-15T22:36:50.646Z,3.67
2022-12-15T22:39:19.406Z,4.68
2022-12-15T22:41:49.199Z,4.05
2022-12-15T22:44:21.351Z,4.63
2022-12-15T22:46:50.074Z,3.90
2022-12-15T22:49:29.027Z,3.80
2022-12-15T22:51:55.676Z,4.45
2022-12-15T22:54:27.441Z,3.75
2022-12-15T22:56:58.561Z,3.35
2022-12-15T22:59:37.131Z,2.90
2022-12-15T23:02:04.279Z,3.13
2022-12-15T23:04:32.506Z,2.55
2022-12-15T23:07:02.843Z,2.17
2022-12-15T23:09:29.706Z,2.00
2022-12-15T23:11:56.436Z,1.98
2022-12-15T23:14:43.077Z,1.98
2022-12-15T23:17:10.407Z,2.00
2022-12-15T23:19:37.118Z,1.88
2022-12-15T23:22:03.772Z,2.42
2022-12-15T23:24:31.392Z,1.92
2022-12-15T23:26:58.065Z,1.95
2022-12-15T23:29:24.976Z,2.15
2022-12-15T23:31:51.767Z,1.70
2022-12-15T23:34:18.754Z,1.60
2022-12-15T23:36:45.446Z,1.70
2022-12-15T23:39:12.192Z,1.70
2022-12-15T23:41:38.903Z,1.60
2022-12-15T23:44:05.818Z,1.77
2022-12-15T23:46:32.556Z,1.60
2022-12-15T23:49:00.029Z,1.65
2022-12-15T23:51:26.739Z,1.58
2022-12-15T23:53:53.668Z,1.70
2022-12-15T23:56:23.883Z,1.80
2022-12-15T23:58:59.005Z,2.08
